LICA/SUF METAR and TAF weather

Enter ICAO airport designator
Station Type Date Time Source
LICA METAR 2022/05/24 12:20 UTC NOAA

LICA 241220Z AUTO 24008KT 9999 NCD 26/15 Q1011


Station Type Date Time Source
LICA Decoded METAR 2022/05/24 12:20 UTC NOAA

Lamezia Terme, Italy (LICA) 38-54N 016-15E
May 24, 2022 - 08:20 AM EDT / 2022.05.24 1220 UTC
Wind: from the WSW (240 degrees) at 9 MPH (8 KT):0
Visibility: greater than 7 mile(s):0
Temperature: 78 F (26 C)
Dew Point: 59 F (15 C)
Relative Humidity: 50%
Pressure (altimeter): 29.85 in. Hg (1011 hPa)
ob: LICA 241220Z AUTO 24008KT 9999 NCD 26/15 Q1011
cycle: 12

Station Type Date Time Source
LICA TAF 2022/05/24 12:23 UTC NOAA

TAF LICA 241100Z 2412/2512 28012KT CAVOK
BECMG 2418/2420 07008KT

Example: see airport list